sensor_id;sensor_type;location;lat;lon;timestamp;temperature;humidity
16102;DHT22;56411;52.964;10.540;2023-02-01T00:02:12;4.50;99.90
16102;DHT22;56411;52.964;10.540;2023-02-01T00:04:39;4.60;99.90
16102;DHT22;56411;52.964;10.540;2023-02-01T00:07:06;4.70;99.90
16102;DHT22;56411;52.964;10.540;2023-02-01T00:09:34;4.70;99.90
16102;DHT22;56411;52.964;10.540;2023-02-01T00:12:01;4.80;99.90
16102;DHT22;56411;52.964;10.540;2023-02-01T00:14:29;4.80;99.90
16102;DHT22;56411;52.964;10.540;2023-02-01T00:16:57;4.80;99.90
16102;DHT22;56411;52.964;10.540;2023-02-01T00:19:24;4.70;99.90
16102;DHT22;56411;52.964;10.540;2023-02-01T00:21:51;4.70;99.90
16102;DHT22;56411;52.964;10.540;2023-02-01T00:24:18;4.70;99.90
16102;DHT22;56411;52.964;10.540;2023-02-01T00:26:46;4.70;99.90
16102;DHT22;56411;52.964;10.540;2023-02-01T00:29:15;4.70;99.90
16102;DHT22;56411;52.964;10.540;2023-02-01T00:31:43;4.70;99.90
16102;DHT22;56411;52.964;10.540;2023-02-01T00:34:12;4.70;99.90
16102;DHT22;56411;52.964;10.540;2023-02-01T00:36:40;4.70;99.90
16102;DHT22;56411;52.964;10.540;2023-02-01T00:39:07;4.70;99.90
16102;DHT22;56411;52.964;10.540;2023-02-01T00:41:34;4.70;99.90
16102;DHT22;56411;52.964;10.540;2023-02-01T00:44:03;4.70;99.90
16102;DHT22;56411;52.964;10.540;2023-02-01T00:46:30;4.70;99.90
16102;DHT22;56411;52.964;10.540;2023-02-01T00:48:57;4.70;99.90
16102;DHT22;56411;52.964;10.540;2023-02-01T00:51:26;4.70;99.90
16102;DHT22;56411;52.964;10.540;2023-02-01T00:53:53;4.70;99.90
16102;DHT22;56411;52.964;10.540;2023-02-01T00:56:21;4.70;99.90
16102;DHT22;56411;52.964;10.540;2023-02-01T00:58:48;4.70;99.90
16102;DHT22;56411;52.964;10.540;2023-02-01T01:01:18;4.70;99.90
16102;DHT22;56411;52.964;10.540;2023-02-01T01:03:47;4.70;99.90
16102;DHT22;56411;52.964;10.540;2023-02-01T01:06:18;4.70;99.90
16102;DHT22;56411;52.964;10.540;2023-02-01T01:08:46;4.70;99.90
16102;DHT22;56411;52.964;10.540;2023-02-01T01:11:15;4.70;99.90
16102;DHT22;56411;52.964;10.540;2023-02-01T01:13:42;4.80;99.90
16102;DHT22;56411;52.964;10.540;2023-02-01T01:16:10;4.80;99.90
16102;DHT22;56411;52.964;10.540;2023-02-01T01:18:39;4.80;99.90
16102;DHT22;56411;52.964;10.540;2023-02-01T01:21:08;4.80;99.90
16102;DHT22;56411;52.964;10.540;2023-02-01T01:23:35;4.90;99.90
16102;DHT22;56411;52.964;10.540;2023-02-01T01:26:05;4.90;99.90
16102;DHT22;56411;52.964;10.540;2023-02-01T01:28:32;4.90;99.90
16102;DHT22;56411;52.964;10.540;2023-02-01T01:30:59;4.90;99.90
16102;DHT22;56411;52.964;10.540;2023-02-01T01:33:26;4.90;99.90
16102;DHT22;56411;52.964;10.540;2023-02-01T01:35:54;4.90;99.90
16102;DHT22;56411;52.964;10.540;2023-02-01T01:38:21;4.90;99.90
16102;DHT22;56411;52.964;10.540;2023-02-01T01:40:48;4.90;99.90
16102;DHT22;56411;52.964;10.540;2023-02-01T01:43:18;5.00;99.90
16102;DHT22;56411;52.964;10.540;2023-02-01T01:45:48;5.00;99.90
16102;DHT22;56411;52.964;10.540;2023-02-01T01:48:18;5.00;99.90
16102;DHT22;56411;52.964;10.540;2023-02-01T01:50:48;5.00;99.90
16102;DHT22;56411;52.964;10.540;2023-02-01T01:53:22;4.90;99.90
16102;DHT22;56411;52.964;10.540;2023-02-01T01:55:52;5.00;99.90
16102;DHT22;56411;52.964;10.540;2023-02-01T01:58:24;4.90;99.90
16102;DHT22;56411;52.964;10.540;2023-02-01T02:00:52;4.90;99.90
16102;DHT22;56411;52.964;10.540;2023-02-01T02:03:22;4.80;99.90
16102;DHT22;56411;52.964;10.540;2023-02-01T02:05:52;4.80;99.90
16102;DHT22;56411;52.964;10.540;2023-02-01T02:08:24;4.80;99.90
16102;DHT22;56411;52.964;10.540;2023-02-01T02:10:51;4.80;99.90
16102;DHT22;56411;52.964;10.540;2023-02-01T02:13:31;4.80;99.90
16102;DHT22;56411;52.964;10.540;2023-02-01T02:16:16;4.80;99.90
16102;DHT22;56411;52.964;10.540;2023-02-01T02:18:55;4.80;99.90
16102;DHT22;56411;52.964;10.540;2023-02-01T02:21:48;4.80;99.90
16102;DHT22;56411;52.964;10.540;2023-02-01T02:27:46;4.80;99.90
16102;DHT22;56411;52.964;10.540;2023-02-01T02:30:34;4.80;99.90
16102;DHT22;56411;52.964;10.540;2023-02-01T02:33:49;4.70;99.90
16102;DHT22;56411;52.964;10.540;2023-02-01T02:36:28;4.70;99.90
16102;DHT22;56411;52.964;10.540;2023-02-01T02:39:03;4.70;99.90
16102;DHT22;56411;52.964;10.540;2023-02-01T02:41:42;4.80;99.90
16102;DHT22;56411;52.964;10.540;2023-02-01T02:44:35;4.80;99.90
16102;DHT22;56411;52.964;10.540;2023-02-01T02:47:24;4.70;99.90
16102;DHT22;56411;52.964;10.540;2023-02-01T02:50:01;4.70;99.90
16102;DHT22;56411;52.964;10.540;2023-02-01T02:52:53;4.70;99.90
16102;DHT22;56411;52.964;10.540;2023-02-01T02:55:40;4.70;99.90
16102;DHT22;56411;52.964;10.540;2023-02-01T02:58:10;4.70;99.90
16102;DHT22;56411;52.964;10.540;2023-02-01T03:00:56;4.70;99.90
16102;DHT22;56411;52.964;10.540;2023-02-01T03:03:41;4.70;99.90
16102;DHT22;56411;52.964;10.540;2023-02-01T03:06:27;4.60;99.90
16102;DHT22;56411;52.964;10.540;2023-02-01T03:08:57;4.60;99.90
16102;DHT22;56411;52.964;10.540;2023-02-01T03:11:25;4.60;99.90
16102;DHT22;56411;52.964;10.540;2023-02-01T03:14:15;4.60;99.90
16102;DHT22;56411;52.964;10.540;2023-02-01T03:16:46;4.60;99.90
16102;DHT22;56411;52.964;10.540;2023-02-01T03:19:18;4.50;99.90
16102;DHT22;56411;52.964;10.540;2023-02-01T03:21:49;4.50;99.90
16102;DHT22;56411;52.964;10.540;2023-02-01T03:24:20;4.50;99.90
16102;DHT22;56411;52.964;10.540;2023-02-01T03:26:53;4.50;99.90
16102;DHT22;56411;52.964;10.540;2023-02-01T03:29:23;4.50;99.90
16102;DHT22;56411;52.964;10.540;2023-02-01T03:31:52;4.50;99.90
16102;DHT22;56411;52.964;10.540;2023-02-01T03:34:19;4.50;99.90
16102;DHT22;56411;52.964;10.540;2023-02-01T03:36:49;4.50;99.90
16102;DHT22;56411;52.964;10.540;2023-02-01T03:39:21;4.60;99.90
16102;DHT22;56411;52.964;10.540;2023-02-01T03:41:52;4.60;99.90
16102;DHT22;56411;52.964;10.540;2023-02-01T03:44:23;4.60;99.90
16102;DHT22;56411;52.964;10.540;2023-02-01T03:46:54;4.60;99.90
16102;DHT22;56411;52.964;10.540;2023-02-01T03:49:25;4.70;99.90
16102;DHT22;56411;52.964;10.540;2023-02-01T03:51:55;4.70;99.90
16102;DHT22;56411;52.964;10.540;2023-02-01T03:54:25;4.70;99.90
16102;DHT22;56411;52.964;10.540;2023-02-01T03:56:55;4.70;99.90
16102;DHT22;56411;52.964;10.540;2023-02-01T03:59:23;4.70;99.90
16102;DHT22;56411;52.964;10.540;2023-02-01T04:01:50;4.70;99.90
16102;DHT22;56411;52.964;10.540;2023-02-01T04:04:18;4.60;99.90
16102;DHT22;56411;52.964;10.540;2023-02-01T04:06:46;4.70;99.90
16102;DHT22;56411;52.964;10.540;2023-02-01T04:09:15;4.60;99.90
16102;DHT22;56411;52.964;10.540;2023-02-01T04:11:42;4.70;99.90
16102;DHT22;56411;52.964;10.540;2023-02-01T04:14:09;4.70;99.90
16102;DHT22;56411;52.964;10.540;2023-02-01T04:16:36;4.70;99.90
16102;DHT22;56411;52.964;10.540;2023-02-01T04:19:03;4.70;99.90
16102;DHT22;56411;52.964;10.540;2023-02-01T04:21:31;4.70;99.90
16102;DHT22;56411;52.964;10.540;2023-02-01T04:23:58;4.70;99.90
16102;DHT22;56411;52.964;10.540;2023-02-01T04:26:26;4.60;99.90
16102;DHT22;56411;52.964;10.540;2023-02-01T04:28:53;4.60;99.90
16102;DHT22;56411;52.964;10.540;2023-02-01T04:31:20;4.60;99.90
16102;DHT22;56411;52.964;10.540;2023-02-01T04:33:51;4.60;99.90
16102;DHT22;56411;52.964;10.540;2023-02-01T04:36:18;4.60;99.90
16102;DHT22;56411;52.964;10.540;2023-02-01T04:38:47;4.60;99.90
16102;DHT22;56411;52.964;10.540;2023-02-01T04:41:14;4.60;99.90
16102;DHT22;56411;52.964;10.540;2023-02-01T04:43:45;4.60;99.90
16102;DHT22;56411;52.964;10.540;2023-02-01T04:46:12;4.50;99.90
16102;DHT22;56411;52.964;10.540;2023-02-01T04:48:39;4.40;99.90
16102;DHT22;56411;52.964;10.540;2023-02-01T04:51:07;4.40;99.90
16102;DHT22;56411;52.964;10.540;2023-02-01T04:53:34;4.30;99.90
16102;DHT22;56411;52.964;10.540;2023-02-01T04:56:01;4.20;99.90
16102;DHT22;56411;52.964;10.540;2023-02-01T04:58:28;4.20;99.90
16102;DHT22;56411;52.964;10.540;2023-02-01T05:00:56;4.10;99.90
16102;DHT22;56411;52.964;10.540;2023-02-01T05:03:24;4.00;99.90
16102;DHT22;56411;52.964;10.540;2023-02-01T05:05:51;4.00;99.90
16102;DHT22;56411;52.964;10.540;2023-02-01T05:08:19;3.90;99.90
16102;DHT22;56411;52.964;10.540;2023-02-01T05:10:47;3.80;99.90
16102;DHT22;56411;52.964;10.540;2023-02-01T05:13:14;3.80;99.90
16102;DHT22;56411;52.964;10.540;2023-02-01T05:16:00;3.80;99.90
16102;DHT22;56411;52.964;10.540;2023-02-01T05:18:27;3.70;99.90
16102;DHT22;56411;52.964;10.540;2023-02-01T05:20:54;3.70;99.90
16102;DHT22;56411;52.964;10.540;2023-02-01T05:23:21;3.70;99.90
16102;DHT22;56411;52.964;10.540;2023-02-01T05:25:51;3.70;99.90
16102;DHT22;56411;52.964;10.540;2023-02-01T05:28:18;3.70;99.90
16102;DHT22;56411;52.964;10.540;2023-02-01T05:30:45;3.70;99.90
16102;DHT22;56411;52.964;10.540;2023-02-01T05:33:13;3.60;99.90
16102;DHT22;56411;52.964;10.540;2023-02-01T05:35:40;3.60;99.90
16102;DHT22;56411;52.964;10.540;2023-02-01T05:38:07;3.60;99.90
16102;DHT22;56411;52.964;10.540;2023-02-01T05:40:34;3.50;99.90
16102;DHT22;56411;52.964;10.540;2023-02-01T05:43:01;3.40;99.90
16102;DHT22;56411;52.964;10.540;2023-02-01T05:45:28;3.30;99.90
16102;DHT22;56411;52.964;10.540;2023-02-01T05:47:55;3.20;99.90
16102;DHT22;56411;52.964;10.540;2023-02-01T05:50:23;3.20;99.90
16102;DHT22;56411;52.964;10.540;2023-02-01T05:52:50;3.10;99.90
16102;DHT22;56411;52.964;10.540;2023-02-01T05:55:17;3.00;99.90
16102;DHT22;56411;52.964;10.540;2023-02-01T05:57:44;3.00;99.90
16102;DHT22;56411;52.964;10.540;2023-02-01T06:00:12;3.00;99.90
16102;DHT22;56411;52.964;10.540;2023-02-01T06:02:39;2.90;99.90
16102;DHT22;56411;52.964;10.540;2023-02-01T06:05:07;2.90;99.90
16102;DHT22;56411;52.964;10.540;2023-02-01T06:07:35;2.90;99.90
16102;DHT22;56411;52.964;10.540;2023-02-01T06:10:03;2.80;99.90
16102;DHT22;56411;52.964;10.540;2023-02-01T06:12:30;2.80;99.90
16102;DHT22;56411;52.964;10.540;2023-02-01T06:14:57;2.80;99.90
16102;DHT22;56411;52.964;10.540;2023-02-01T06:17:24;2.80;99.90
16102;DHT22;56411;52.964;10.540;2023-02-01T06:19:51;2.80;99.90
16102;DHT22;56411;52.964;10.540;2023-02-01T06:22:18;2.80;99.90
16102;DHT22;56411;52.964;10.540;2023-02-01T06:24:48;2.70;99.90
16102;DHT22;56411;52.964;10.540;2023-02-01T06:27:15;2.70;99.90
16102;DHT22;56411;52.964;10.540;2023-02-01T06:29:42;2.80;99.90
16102;DHT22;56411;52.964;10.540;2023-02-01T06:32:09;2.80;99.90
16102;DHT22;56411;52.964;10.540;2023-02-01T06:34:36;2.80;99.90
16102;DHT22;56411;52.964;10.540;2023-02-01T06:37:05;2.80;99.90
16102;DHT22;56411;52.964;10.540;2023-02-01T06:39:32;2.80;99.90
16102;DHT22;56411;52.964;10.540;2023-02-01T06:42:00;2.70;99.90
16102;DHT22;56411;52.964;10.540;2023-02-01T06:44:27;2.70;99.90
16102;DHT22;56411;52.964;10.540;2023-02-01T06:46:54;2.60;99.90
16102;DHT22;56411;52.964;10.540;2023-02-01T06:49:21;2.50;99.90
16102;DHT22;56411;52.964;10.540;2023-02-01T06:51:48;2.50;99.90
16102;DHT22;56411;52.964;10.540;2023-02-01T06:54:15;2.60;99.90
16102;DHT22;56411;52.964;10.540;2023-02-01T06:56:42;2.60;99.90
16102;DHT22;56411;52.964;10.540;2023-02-01T06:59:11;2.60;99.90
16102;DHT22;56411;52.964;10.540;2023-02-01T07:01:38;2.70;99.90
16102;DHT22;56411;52.964;10.540;2023-02-01T07:04:05;2.70;99.90
16102;DHT22;56411;52.964;10.540;2023-02-01T07:06:32;2.60;99.90
16102;DHT22;56411;52.964;10.540;2023-02-01T07:08:59;2.60;99.90
16102;DHT22;56411;52.964;10.540;2023-02-01T07:11:26;2.60;99.90
16102;DHT22;56411;52.964;10.540;2023-02-01T07:13:53;2.50;99.90
16102;DHT22;56411;52.964;10.540;2023-02-01T07:16:22;2.50;99.90
16102;DHT22;56411;52.964;10.540;2023-02-01T07:22:33;2.50;99.90
16102;DHT22;56411;52.964;10.540;2023-02-01T07:24:59;2.50;99.90
16102;DHT22;56411;52.964;10.540;2023-02-01T07:27:26;2.50;99.90
16102;DHT22;56411;52.964;10.540;2023-02-01T07:29:53;2.50;99.90
16102;DHT22;56411;52.964;10.540;2023-02-01T07:32:22;2.50;99.90
16102;DHT22;56411;52.964;10.540;2023-02-01T07:34:49;2.50;99.90
16102;DHT22;56411;52.964;10.540;2023-02-01T07:37:16;2.50;99.90
16102;DHT22;56411;52.964;10.540;2023-02-01T07:39:44;2.50;99.90
16102;DHT22;56411;52.964;10.540;2023-02-01T07:42:12;2.40;99.90
16102;DHT22;56411;52.964;10.540;2023-02-01T07:44:39;2.50;99.90
16102;DHT22;56411;52.964;10.540;2023-02-01T07:47:06;2.40;99.90
16102;DHT22;56411;52.964;10.540;2023-02-01T07:49:34;2.50;99.90
16102;DHT22;56411;52.964;10.540;2023-02-01T07:52:02;2.50;99.90
16102;DHT22;56411;52.964;10.540;2023-02-01T07:54:28;2.50;99.90
16102;DHT22;56411;52.964;10.540;2023-02-01T07:56:56;2.50;99.90
16102;DHT22;56411;52.964;10.540;2023-02-01T07:59:23;2.40;99.90
16102;DHT22;56411;52.964;10.540;2023-02-01T08:01:53;2.50;99.90
16102;DHT22;56411;52.964;10.540;2023-02-01T08:04:19;2.50;99.90
16102;DHT22;56411;52.964;10.540;2023-02-01T08:06:47;2.60;99.90
16102;DHT22;56411;52.964;10.540;2023-02-01T08:09:14;2.70;99.90
16102;DHT22;56411;52.964;10.540;2023-02-01T08:11:42;2.90;99.90
16102;DHT22;56411;52.964;10.540;2023-02-01T08:14:09;3.00;99.90
16102;DHT22;56411;52.964;10.540;2023-02-01T08:16:36;3.30;99.90
16102;DHT22;56411;52.964;10.540;2023-02-01T08:19:04;3.50;99.90
16102;DHT22;56411;52.964;10.540;2023-02-01T08:21:31;3.60;99.90
16102;DHT22;56411;52.964;10.540;2023-02-01T08:24:06;3.80;99.90
16102;DHT22;56411;52.964;10.540;2023-02-01T08:26:34;3.90;99.90
16102;DHT22;56411;52.964;10.540;2023-02-01T08:29:03;3.90;99.90
16102;DHT22;56411;52.964;10.540;2023-02-01T08:31:31;3.90;99.90
16102;DHT22;56411;52.964;10.540;2023-02-01T08:33:59;4.00;99.90
16102;DHT22;56411;52.964;10.540;2023-02-01T08:36:28;4.00;99.90
16102;DHT22;56411;52.964;10.540;2023-02-01T08:38:56;4.00;99.90
16102;DHT22;56411;52.964;10.540;2023-02-01T08:41:26;4.10;99.90
16102;DHT22;56411;52.964;10.540;2023-02-01T08:43:54;4.10;99.90
16102;DHT22;56411;52.964;10.540;2023-02-01T08:46:22;4.20;99.90
16102;DHT22;56411;52.964;10.540;2023-02-01T08:48:49;4.20;99.90
16102;DHT22;56411;52.964;10.540;2023-02-01T08:51:20;4.30;99.90
16102;DHT22;56411;52.964;10.540;2023-02-01T08:53:48;4.40;99.90
16102;DHT22;56411;52.964;10.540;2023-02-01T08:56:17;4.40;99.90
16102;DHT22;56411;52.964;10.540;2023-02-01T08:58:45;4.50;99.90
16102;DHT22;56411;52.964;10.540;2023-02-01T09:01:14;4.50;99.90
16102;DHT22;56411;52.964;10.540;2023-02-01T09:03:41;4.60;99.90
16102;DHT22;56411;52.964;10.540;2023-02-01T09:06:09;4.60;99.90
16102;DHT22;56411;52.964;10.540;2023-02-01T09:08:37;4.60;99.90
16102;DHT22;56411;52.964;10.540;2023-02-01T09:11:06;4.60;99.90
16102;DHT22;56411;52.964;10.540;2023-02-01T09:13:34;4.50;99.90
16102;DHT22;56411;52.964;10.540;2023-02-01T09:16:03;4.30;99.90
16102;DHT22;56411;52.964;10.540;2023-02-01T09:18:30;4.10;99.90
16102;DHT22;56411;52.964;10.540;2023-02-01T09:20:56;3.90;99.90
16102;DHT22;56411;52.964;10.540;2023-02-01T09:23:24;3.90;99.90
16102;DHT22;56411;52.964;10.540;2023-02-01T09:25:51;3.80;99.90
16102;DHT22;56411;52.964;10.540;2023-02-01T09:28:18;3.70;99.90
16102;DHT22;56411;52.964;10.540;2023-02-01T09:30:45;3.70;99.90
16102;DHT22;56411;52.964;10.540;2023-02-01T09:33:13;3.80;99.90
16102;DHT22;56411;52.964;10.540;2023-02-01T09:35:40;3.80;99.90
16102;DHT22;56411;52.964;10.540;2023-02-01T09:38:07;4.00;99.90
16102;DHT22;56411;52.964;10.540;2023-02-01T09:40:35;4.10;99.90
16102;DHT22;56411;52.964;10.540;2023-02-01T09:43:19;4.20;99.90
16102;DHT22;56411;52.964;10.540;2023-02-01T09:45:55;4.20;99.90
16102;DHT22;56411;52.964;10.540;2023-02-01T09:48:35;4.30;99.90
16102;DHT22;56411;52.964;10.540;2023-02-01T09:51:07;4.30;99.90
16102;DHT22;56411;52.964;10.540;2023-02-01T09:53:41;4.30;99.90
16102;DHT22;56411;52.964;10.540;2023-02-01T09:56:12;4.40;99.90
16102;DHT22;56411;52.964;10.540;2023-02-01T09:58:43;4.50;99.90
16102;DHT22;56411;52.964;10.540;2023-02-01T10:01:16;4.60;99.90
16102;DHT22;56411;52.964;10.540;2023-02-01T10:03:46;4.70;99.90
16102;DHT22;56411;52.964;10.540;2023-02-01T10:06:28;4.70;99.90
16102;DHT22;56411;52.964;10.540;2023-02-01T10:09:18;4.70;99.90
16102;DHT22;56411;52.964;10.540;2023-02-01T10:11:58;4.80;99.90
16102;DHT22;56411;52.964;10.540;2023-02-01T10:14:48;4.90;99.90
16102;DHT22;56411;52.964;10.540;2023-02-01T10:17:25;5.00;99.90
16102;DHT22;56411;52.964;10.540;2023-02-01T10:20:06;5.00;99.90
16102;DHT22;56411;52.964;10.540;2023-02-01T10:22:40;5.10;99.90
16102;DHT22;56411;52.964;10.540;2023-02-01T10:25:14;5.20;99.90
16102;DHT22;56411;52.964;10.540;2023-02-01T10:27:43;5.20;99.90
16102;DHT22;56411;52.964;10.540;2023-02-01T10:30:18;5.30;99.90
16102;DHT22;56411;52.964;10.540;2023-02-01T10:32:48;5.30;99.90
16102;DHT22;56411;52.964;10.540;2023-02-01T10:35:21;5.30;99.90
16102;DHT22;56411;52.964;10.540;2023-02-01T10:37:49;5.30;99.90
16102;DHT22;56411;52.964;10.540;2023-02-01T10:40:18;5.40;99.90
16102;DHT22;56411;52.964;10.540;2023-02-01T10:42:47;5.50;99.90
16102;DHT22;56411;52.964;10.540;2023-02-01T10:45:18;5.60;99.90
16102;DHT22;56411;52.964;10.540;2023-02-01T10:47:47;5.70;99.90
16102;DHT22;56411;52.964;10.540;2023-02-01T10:50:25;5.70;99.90
16102;DHT22;56411;52.964;10.540;2023-02-01T10:53:00;5.70;99.90
16102;DHT22;56411;52.964;10.540;2023-02-01T10:55:35;6.00;99.90
16102;DHT22;56411;52.964;10.540;2023-02-01T10:58:05;6.00;99.90
16102;DHT22;56411;52.964;10.540;2023-02-01T11:00:43;5.90;99.90
16102;DHT22;56411;52.964;10.540;2023-02-01T11:03:22;5.70;99.90
16102;DHT22;56411;52.964;10.540;2023-02-01T11:05:57;5.60;99.90
16102;DHT22;56411;52.964;10.540;2023-02-01T11:08:24;5.50;99.90
16102;DHT22;56411;52.964;10.540;2023-02-01T11:10:57;5.50;99.90
16102;DHT22;56411;52.964;10.540;2023-02-01T11:13:29;5.50;99.90
16102;DHT22;56411;52.964;10.540;2023-02-01T11:15:57;5.50;99.90
16102;DHT22;56411;52.964;10.540;2023-02-01T11:18:28;5.40;99.90
16102;DHT22;56411;52.964;10.540;2023-02-01T11:20:56;5.40;99.90
16102;DHT22;56411;52.964;10.540;2023-02-01T11:23:27;5.50;99.90
16102;DHT22;56411;52.964;10.540;2023-02-01T11:25:57;5.50;99.90
16102;DHT22;56411;52.964;10.540;2023-02-01T11:28:27;5.50;99.90
16102;DHT22;56411;52.964;10.540;2023-02-01T11:30:58;5.50;99.90
16102;DHT22;56411;52.964;10.540;2023-02-01T11:33:30;5.50;99.90
16102;DHT22;56411;52.964;10.540;2023-02-01T11:36:07;5.60;99.90
16102;DHT22;56411;52.964;10.540;2023-02-01T11:38:35;5.60;99.90
16102;DHT22;56411;52.964;10.540;2023-02-01T11:41:12;5.60;99.90
16102;DHT22;56411;52.964;10.540;2023-02-01T11:43:51;5.70;99.90
16102;DHT22;56411;52.964;10.540;2023-02-01T11:46:21;5.70;99.90
16102;DHT22;56411;52.964;10.540;2023-02-01T11:48:51;5.70;99.90
16102;DHT22;56411;52.964;10.540;2023-02-01T11:51:41;5.70;99.90
16102;DHT22;56411;52.964;10.540;2023-02-01T11:54:24;5.70;99.90
16102;DHT22;56411;52.964;10.540;2023-02-01T11:57:07;5.60;99.90
16102;DHT22;56411;52.964;10.540;2023-02-01T12:00:12;5.50;99.90
16102;DHT22;56411;52.964;10.540;2023-02-01T12:02:58;5.20;99.90
16102;DHT22;56411;52.964;10.540;2023-02-01T12:05:34;5.00;99.90
16102;DHT22;56411;52.964;10.540;2023-02-01T12:08:52;4.90;99.90
16102;DHT22;56411;52.964;10.540;2023-02-01T12:11:36;4.80;99.90
16102;DHT22;56411;52.964;10.540;2023-02-01T12:14:14;4.80;99.90
16102;DHT22;56411;52.964;10.540;2023-02-01T12:16:59;4.70;99.90
16102;DHT22;56411;52.964;10.540;2023-02-01T12:19:44;4.50;99.90
16102;DHT22;56411;52.964;10.540;2023-02-01T12:22:31;4.20;99.90
16102;DHT22;56411;52.964;10.540;2023-02-01T12:25:22;4.20;99.90
16102;DHT22;56411;52.964;10.540;2023-02-01T12:31:00;4.20;99.90
16102;DHT22;56411;52.964;10.540;2023-02-01T12:33:38;4.20;99.90
16102;DHT22;56411;52.964;10.540;2023-02-01T12:36:16;4.20;99.90
16102;DHT22;56411;52.964;10.540;2023-02-01T12:38:53;4.20;99.90
16102;DHT22;56411;52.964;10.540;2023-02-01T12:41:36;4.20;99.90
16102;DHT22;56411;52.964;10.540;2023-02-01T12:44:12;4.20;99.90
16102;DHT22;56411;52.964;10.540;2023-02-01T12:46:48;4.20;99.90
16102;DHT22;56411;52.964;10.540;2023-02-01T12:49:19;4.10;99.90
16102;DHT22;56411;52.964;10.540;2023-02-01T12:51:55;4.10;99.90
16102;DHT22;56411;52.964;10.540;2023-02-01T12:54:33;4.10;99.90
16102;DHT22;56411;52.964;10.540;2023-02-01T12:57:06;4.10;99.90
16102;DHT22;56411;52.964;10.540;2023-02-01T12:59:39;4.00;99.90
16102;DHT22;56411;52.964;10.540;2023-02-01T13:02:15;4.00;99.90
16102;DHT22;56411;52.964;10.540;2023-02-01T13:04:55;3.80;99.90
16102;DHT22;56411;52.964;10.540;2023-02-01T13:07:28;3.70;99.90
16102;DHT22;56411;52.964;10.540;2023-02-01T13:10:01;3.50;99.90
16102;DHT22;56411;52.964;10.540;2023-02-01T13:12:34;3.50;99.90
16102;DHT22;56411;52.964;10.540;2023-02-01T13:15:09;3.40;99.90
16102;DHT22;56411;52.964;10.540;2023-02-01T13:17:38;3.40;99.90
16102;DHT22;56411;52.964;10.540;2023-02-01T13:20:13;3.30;99.90
16102;DHT22;56411;52.964;10.540;2023-02-01T13:22:45;3.10;99.90
16102;DHT22;56411;52.964;10.540;2023-02-01T13:25:15;3.00;99.90
16102;DHT22;56411;52.964;10.540;2023-02-01T13:27:45;2.90;99.90
16102;DHT22;56411;52.964;10.540;2023-02-01T13:30:16;2.70;99.90
16102;DHT22;56411;52.964;10.540;2023-02-01T13:33:11;2.50;99.90
16102;DHT22;56411;52.964;10.540;2023-02-01T13:36:10;2.30;99.90
16102;DHT22;56411;52.964;10.540;2023-02-01T13:41:41;1.90;99.90
16102;DHT22;56411;52.964;10.540;2023-02-01T13:44:15;1.70;99.90
16102;DHT22;56411;52.964;10.540;2023-02-01T13:46:47;1.40;99.90
16102;DHT22;56411;52.964;10.540;2023-02-01T13:49:20;1.30;99.90
16102;DHT22;56411;52.964;10.540;2023-02-01T13:51:50;1.20;99.90
16102;DHT22;56411;52.964;10.540;2023-02-01T13:54:28;1.20;99.90
16102;DHT22;56411;52.964;10.540;2023-02-01T13:56:55;1.30;99.90
16102;DHT22;56411;52.964;10.540;2023-02-01T13:59:53;1.50;99.90
16102;DHT22;56411;52.964;10.540;2023-02-01T14:03:01;1.60;99.90
16102;DHT22;56411;52.964;10.540;2023-02-01T14:05:55;1.60;99.90
16102;DHT22;56411;52.964;10.540;2023-02-01T14:08:35;1.60;99.90
16102;DHT22;56411;52.964;10.540;2023-02-01T14:11:03;1.70;99.90
16102;DHT22;56411;52.964;10.540;2023-02-01T14:13:32;1.70;99.90
16102;DHT22;56411;52.964;10.540;2023-02-01T14:16:16;1.70;99.90
16102;DHT22;56411;52.964;10.540;2023-02-01T14:19:00;1.60;99.90
16102;DHT22;56411;52.964;10.540;2023-02-01T14:21:29;1.70;99.90
16102;DHT22;56411;52.964;10.540;2023-02-01T14:23:59;1.70;99.90
16102;DHT22;56411;52.964;10.540;2023-02-01T14:26:41;1.90;99.90
16102;DHT22;56411;52.964;10.540;2023-02-01T14:29:26;2.60;99.90
16102;DHT22;56411;52.964;10.540;2023-02-01T14:32:01;2.90;99.90
16102;DHT22;56411;52.964;10.540;2023-02-01T14:34:38;3.30;99.90
16102;DHT22;56411;52.964;10.540;2023-02-01T14:37:11;3.70;99.90
16102;DHT22;56411;52.964;10.540;2023-02-01T14:39:55;3.80;99.90
16102;DHT22;56411;52.964;10.540;2023-02-01T14:42:26;3.70;99.90
16102;DHT22;56411;52.964;10.540;2023-02-01T14:44:54;3.60;99.90
16102;DHT22;56411;52.964;10.540;2023-02-01T14:47:33;3.40;99.90
16102;DHT22;56411;52.964;10.540;2023-02-01T14:50:17;3.20;99.90
16102;DHT22;56411;52.964;10.540;2023-02-01T14:52:49;3.10;99.90
16102;DHT22;56411;52.964;10.540;2023-02-01T14:55:20;3.10;99.90
16102;DHT22;56411;52.964;10.540;2023-02-01T14:57:50;3.20;99.90
16102;DHT22;56411;52.964;10.540;2023-02-01T15:00:23;3.20;99.90
16102;DHT22;56411;52.964;10.540;2023-02-01T15:02:53;3.20;99.90
16102;DHT22;56411;52.964;10.540;2023-02-01T15:05:32;3.20;99.90
16102;DHT22;56411;52.964;10.540;2023-02-01T15:08:07;3.20;99.90
16102;DHT22;56411;52.964;10.540;2023-02-01T15:10:41;3.30;99.90
16102;DHT22;56411;52.964;10.540;2023-02-01T15:13:18;3.40;99.90
16102;DHT22;56411;52.964;10.540;2023-02-01T15:16:00;3.40;99.90
16102;DHT22;56411;52.964;10.540;2023-02-01T15:18:29;3.40;99.90
16102;DHT22;56411;52.964;10.540;2023-02-01T15:20:57;3.40;99.90
16102;DHT22;56411;52.964;10.540;2023-02-01T15:23:25;3.50;99.90
16102;DHT22;56411;52.964;10.540;2023-02-01T15:25:52;3.50;99.90
16102;DHT22;56411;52.964;10.540;2023-02-01T15:28:19;3.50;99.90
16102;DHT22;56411;52.964;10.540;2023-02-01T15:30:55;3.50;99.90
16102;DHT22;56411;52.964;10.540;2023-02-01T15:33:23;3.40;99.90
16102;DHT22;56411;52.964;10.540;2023-02-01T15:35:52;3.40;99.90
16102;DHT22;56411;52.964;10.540;2023-02-01T15:38:37;3.40;99.90
16102;DHT22;56411;52.964;10.540;2023-02-01T15:41:13;3.30;99.90
16102;DHT22;56411;52.964;10.540;2023-02-01T15:43:43;3.30;99.90
16102;DHT22;56411;52.964;10.540;2023-02-01T15:46:13;3.30;99.90
16102;DHT22;56411;52.964;10.540;2023-02-01T15:48:44;3.30;99.90
16102;DHT22;56411;52.964;10.540;2023-02-01T15:51:15;3.30;99.90
16102;DHT22;56411;52.964;10.540;2023-02-01T15:53:46;3.20;99.90
16102;DHT22;56411;52.964;10.540;2023-02-01T15:56:15;3.20;99.90
16102;DHT22;56411;52.964;10.540;2023-02-01T15:58:45;3.20;99.90
16102;DHT22;56411;52.964;10.540;2023-02-01T16:01:15;3.10;99.90
16102;DHT22;56411;52.964;10.540;2023-02-01T16:03:43;3.10;99.90
16102;DHT22;56411;52.964;10.540;2023-02-01T16:06:28;3.00;99.90
16102;DHT22;56411;52.964;10.540;2023-02-01T16:09:01;3.00;99.90
16102;DHT22;56411;52.964;10.540;2023-02-01T16:11:30;3.00;99.90
16102;DHT22;56411;52.964;10.540;2023-02-01T16:13:57;2.90;99.90